createdAt,value
2018-04-28T00:01:01.544Z,71.40
2018-04-28T00:05:04.074Z,70.70
2018-04-28T00:09:08.293Z,70.20
2018-04-28T00:13:10.837Z,70.30
2018-04-28T00:17:14.129Z,70.70
2018-04-28T00:21:16.666Z,71.10
2018-04-28T00:25:20.885Z,71.20
2018-04-28T00:29:23.412Z,70.80
2018-04-28T00:33:38.772Z,71.10
2018-04-28T00:37:50.715Z,71.20
2018-04-28T00:41:54.092Z,71.20
2018-04-28T00:46:04.062Z,70.60
2018-04-28T00:50:13.096Z,70.50
2018-04-28T00:54:18.173Z,70.50
2018-04-28T01:02:56.079Z,71.60
2018-04-28T01:06:59.377Z,71.90
2018-04-28T01:11:17.551Z,70.70
2018-04-28T01:15:21.764Z,70.20
2018-04-28T01:19:24.317Z,70.30
2018-04-28T01:23:38.192Z,70.10
2018-04-28T01:27:47.258Z,70.10
2018-04-28T01:32:01.070Z,69.90
2018-04-28T01:36:25.237Z,70.50
2018-04-28T01:40:27.763Z,70.60
2018-04-28T01:44:34.284Z,71.70
2018-04-28T01:48:54.903Z,71.60
2018-04-28T01:52:59.359Z,71.70
2018-04-28T01:57:09.516Z,72.30
2018-04-28T02:01:25.313Z,71.40
2018-04-28T02:05:39.614Z,72.00
2018-04-28T02:09:42.123Z,71.90
2018-04-28T02:13:46.207Z,71.80
2018-04-28T02:18:00.293Z,71.80
2018-04-28T02:22:13.655Z,71.80
2018-04-28T02:26:18.116Z,71.30
2018-04-28T02:30:21.388Z,70.40
2018-04-28T02:39:05.535Z,71.00
2018-04-28T02:43:08.781Z,71.00
2018-04-28T02:47:26.859Z,70.60
2018-04-28T02:51:34.176Z,70.00
2018-04-28T02:55:55.339Z,70.10
2018-04-28T03:00:16.303Z,71.00
2018-04-28T03:04:23.319Z,70.60
2018-04-28T03:08:32.661Z,70.90
2018-04-28T03:12:35.179Z,72.50
2018-04-28T03:16:42.141Z,70.10
2018-04-28T03:20:45.548Z,70.50
2018-04-28T03:24:54.587Z,70.30
2018-04-28T03:28:57.135Z,70.30
2018-04-28T03:37:39.016Z,74.00
2018-04-28T03:41:55.922Z,73.90
2018-04-28T03:46:07.092Z,73.70
2018-04-28T04:05:24.992Z,70.20
2018-04-28T04:09:29.180Z,71.10
2018-04-28T04:13:44.305Z,71.10
2018-04-28T04:17:53.484Z,72.30
2018-04-28T04:26:28.438Z,72.10
2018-04-28T04:30:47.639Z,71.60
2018-04-28T04:35:01.639Z,71.20
2018-04-28T04:43:39.751Z,72.00
2018-04-28T04:47:48.296Z,70.80
2018-04-28T04:56:42.803Z,71.50
2018-04-28T05:00:58.804Z,71.10
2018-04-28T05:09:51.127Z,71.80
2018-04-28T05:14:16.428Z,71.10
2018-04-28T05:18:30.464Z,73.00
2018-04-28T05:22:40.632Z,73.30
2018-04-28T05:26:50.157Z,71.70
2018-04-28T05:31:24.066Z,71.10
2018-04-28T05:40:04.833Z,76.30
2018-04-28T05:49:03.621Z,74.90
2018-04-28T05:53:32.992Z,74.70
2018-04-28T05:57:41.286Z,73.00
2018-04-28T06:02:03.364Z,73.10
2018-04-28T06:10:57.131Z,75.10
2018-04-28T06:15:09.395Z,72.40
2018-04-28T06:23:51.532Z,72.00
2018-04-28T06:27:54.672Z,71.90
2018-04-28T06:31:57.183Z,73.40
2018-04-28T06:36:00.484Z,74.10
2018-04-28T06:40:03.780Z,72.50
2018-04-28T06:44:07.075Z,72.20
2018-04-28T06:48:10.379Z,73.60
2018-04-28T06:52:13.650Z,72.90
2018-04-28T06:56:16.191Z,72.80
2018-04-28T07:00:18.723Z,72.80
2018-04-28T07:04:21.259Z,73.60
2018-04-28T07:08:23.786Z,72.50
2018-04-28T07:12:26.295Z,72.00
2018-04-28T07:16:28.994Z,72.10
2018-04-28T07:20:32.416Z,71.50
2018-04-28T07:24:34.961Z,71.50
2018-04-28T07:28:37.529Z,71.80
2018-04-28T07:32:40.047Z,71.80
2018-04-28T07:36:43.489Z,71.30
2018-04-28T07:40:46.056Z,71.90
2018-04-28T07:44:49.381Z,71.30
2018-04-28T07:48:51.941Z,71.30
2018-04-28T07:52:54.443Z,71.40
2018-04-28T07:56:56.972Z,71.80
2018-04-28T08:00:59.502Z,70.60
2018-04-28T08:05:02.811Z,70.90
2018-04-28T08:09:05.350Z,70.90
2018-04-28T08:13:07.897Z,69.30
2018-04-28T08:17:10.451Z,70.30
2018-04-28T08:21:13.740Z,69.70
2018-04-28T08:25:16.270Z,69.70
2018-04-28T08:29:18.811Z,69.50
2018-04-28T08:33:21.323Z,66.00
2018-04-28T08:37:23.937Z,67.60
2018-04-28T08:41:27.192Z,67.80
2018-04-28T08:45:30.528Z,67.20
2018-04-28T08:49:33.043Z,66.80
2018-04-28T08:53:35.558Z,67.10
2018-04-28T08:57:38.851Z,68.90
2018-04-28T09:01:41.375Z,67.90
2018-04-28T09:05:43.903Z,68.10
2018-04-28T09:09:46.434Z,66.20
2018-04-28T09:13:49.717Z,66.60
2018-04-28T09:17:53.025Z,67.20
2018-04-28T09:21:56.334Z,64.20
2018-04-28T09:25:59.652Z,64.60
2018-04-28T09:30:02.189Z,64.90
2018-04-28T09:34:04.701Z,67.30
2018-04-28T09:38:08.032Z,65.50
2018-04-28T09:42:10.572Z,65.40
2018-04-28T09:46:13.127Z,64.10
2018-04-28T09:50:15.657Z,64.30
2018-04-28T09:54:18.943Z,66.10
2018-04-28T09:58:21.480Z,65.90
2018-04-28T10:02:24.012Z,63.80
2018-04-28T10:06:26.547Z,61.10
2018-04-28T10:10:29.079Z,60.70
2018-04-28T10:14:32.753Z,62.90
2018-04-28T10:18:35.283Z,62.10
2018-04-28T10:22:37.826Z,64.20
2018-04-28T10:26:40.411Z,64.50
2018-04-28T10:30:42.936Z,66.00
2018-04-28T10:34:45.454Z,63.50
2018-04-28T10:38:49.152Z,64.30
2018-04-28T10:42:52.459Z,61.80
2018-04-28T10:46:54.990Z,61.40
2018-04-28T10:50:57.490Z,61.20
2018-04-28T10:55:00.024Z,63.20
2018-04-28T10:59:02.595Z,64.80
2018-04-28T11:03:05.907Z,63.10
2018-04-28T11:07:08.444Z,63.30
2018-04-28T11:11:10.972Z,64.50
2018-04-28T11:15:14.283Z,65.50
2018-04-28T11:19:16.812Z,65.60
2018-04-28T11:23:19.339Z,64.20
2018-04-28T11:27:22.645Z,62.60
2018-04-28T11:31:25.926Z,64.10
2018-04-28T11:35:28.459Z,64.70
2018-04-28T11:39:31.013Z,65.00
2018-04-28T11:43:34.401Z,63.40
2018-04-28T11:47:36.887Z,63.40
2018-04-28T11:51:39.409Z,63.00
2018-04-28T11:55:41.954Z,59.90
2018-04-28T11:59:45.267Z,62.50
2018-04-28T12:03:48.556Z,61.80
2018-04-28T12:07:51.107Z,61.60
2018-04-28T12:11:53.623Z,60.30
2018-04-28T12:15:56.167Z,59.50
2018-04-28T12:19:58.704Z,61.90
2018-04-28T12:24:01.264Z,62.00
2018-04-28T12:28:03.807Z,60.20
2018-04-28T12:32:06.344Z,59.10
2018-04-28T12:36:08.889Z,61.90
2018-04-28T12:40:12.900Z,61.60
2018-04-28T12:44:16.196Z,58.90
2018-04-28T12:48:18.724Z,61.30
2018-04-28T12:52:21.242Z,63.70
2018-04-28T12:56:24.557Z,62.00
2018-04-28T13:00:27.091Z,62.00
2018-04-28T13:04:29.621Z,62.70
2018-04-28T13:08:32.910Z,63.00
2018-04-28T13:12:36.587Z,59.00
2018-04-28T13:16:39.126Z,58.30
2018-04-28T13:20:41.668Z,59.20
2018-04-28T13:24:44.206Z,63.30
2018-04-28T13:28:47.508Z,56.20
2018-04-28T13:32:50.051Z,62.90
2018-04-28T13:36:52.583Z,62.70
2018-04-28T13:40:55.117Z,63.00
2018-04-28T13:44:57.643Z,62.60
2018-04-28T13:49:00.167Z,58.50
2018-04-28T13:53:02.711Z,61.60
2018-04-28T13:57:05.228Z,57.20
2018-04-28T14:01:07.762Z,60.70
2018-04-28T14:05:11.059Z,61.80
2018-04-28T14:09:13.590Z,61.30
2018-04-28T14:13:16.115Z,58.30
2018-04-28T14:17:18.627Z,62.20
2018-04-28T14:21:21.928Z,59.60
2018-04-28T14:25:25.227Z,60.50
2018-04-28T14:29:28.525Z,61.40
2018-04-28T14:33:31.819Z,63.00
2018-04-28T14:37:34.324Z,63.00
2018-04-28T14:41:37.620Z,63.00
2018-04-28T14:45:40.920Z,57.00
2018-04-28T14:49:44.230Z,60.00
2018-04-28T14:53:47.531Z,57.50
2018-04-28T14:57:50.814Z,59.50
2018-04-28T15:01:53.342Z,59.20
2018-04-28T15:05:55.875Z,60.50
2018-04-28T15:09:58.416Z,60.00
2018-04-28T15:14:00.972Z,58.50
2018-04-28T15:18:05.840Z,61.70
2018-04-28T15:22:08.425Z,61.70
2018-04-28T15:26:10.960Z,60.60
2018-04-28T15:30:13.492Z,57.90
2018-04-28T15:34:16.881Z,60.80
2018-04-28T15:38:19.412Z,60.70
2018-04-28T15:42:21.950Z,59.80
2018-04-28T15:46:24.516Z,62.40
2018-04-28T15:50:27.839Z,62.70
2018-04-28T15:54:31.132Z,62.40
2018-04-28T15:58:34.414Z,59.70
2018-04-28T16:02:36.948Z,59.90
2018-04-28T16:06:39.478Z,63.50
2018-04-28T16:10:42.003Z,62.50
2018-04-28T16:14:46.332Z,63.00
2018-04-28T16:18:48.827Z,61.40
2018-04-28T16:22:51.390Z,58.60
2018-04-28T16:26:53.931Z,59.60
2018-04-28T16:30:56.471Z,61.40
2018-04-28T16:35:01.110Z,62.30
2018-04-28T16:39:03.636Z,62.20
2018-04-28T16:43:06.152Z,62.40
2018-04-28T16:47:09.455Z,63.30
2018-04-28T16:51:12.756Z,62.20
2018-04-28T16:55:16.058Z,62.50
2018-04-28T16:59:19.358Z,61.60
2018-04-28T17:03:22.654Z,62.00
2018-04-28T17:07:25.191Z,62.00
2018-04-28T17:11:27.719Z,61.30
2018-04-28T17:15:30.252Z,61.80
2018-04-28T17:19:32.795Z,60.60
2018-04-28T17:23:35.303Z,63.40
2018-04-28T17:27:37.873Z,61.80
2018-04-28T17:31:41.176Z,62.50
2018-04-28T17:35:44.471Z,62.70
2018-04-28T17:39:47.004Z,62.80
2018-04-28T17:43:49.511Z,63.10
2018-04-28T17:47:52.047Z,63.90
2018-04-28T17:51:54.588Z,63.80
2018-04-28T17:55:57.120Z,63.10
2018-04-28T17:59:59.660Z,63.20
2018-04-28T18:04:02.184Z,63.60
2018-04-28T18:08:04.714Z,63.30
2018-04-28T18:12:07.248Z,64.40
2018-04-28T18:16:09.789Z,64.40
2018-04-28T18:20:12.319Z,63.90
2018-04-28T18:24:15.599Z,64.10
2018-04-28T18:28:18.164Z,64.10
2018-04-28T18:32:20.686Z,64.10
2018-04-28T18:36:23.993Z,64.60
2018-04-28T18:40:28.218Z,64.70
2018-04-28T18:44:30.760Z,64.70
2018-04-28T18:48:33.271Z,64.40
2018-04-28T18:52:35.828Z,64.20
2018-04-28T18:56:38.424Z,65.20
2018-04-28T19:00:40.951Z,65.50
2018-04-28T19:04:43.483Z,65.50
2018-04-28T19:08:46.005Z,65.70
2018-04-28T19:12:49.319Z,65.80
2018-04-28T19:16:51.848Z,65.80
2018-04-28T19:20:54.398Z,65.90
2018-04-28T19:24:56.932Z,66.10
2018-04-28T19:28:59.447Z,66.50
2018-04-28T19:33:02.781Z,66.50
2018-04-28T19:37:05.315Z,66.50
2018-04-28T19:41:07.848Z,67.20
2018-04-28T19:45:10.384Z,66.70
2018-04-28T19:49:12.900Z,66.80
2018-04-28T19:53:15.440Z,66.70
2018-04-28T19:57:17.978Z,67.20
2018-04-28T20:01:20.516Z,67.40
2018-04-28T20:05:23.042Z,67.60
2018-04-28T20:09:25.543Z,67.70
2018-04-28T20:13:28.067Z,67.60
2018-04-28T20:17:30.588Z,67.40
2018-04-28T20:21:33.895Z,67.70
2018-04-28T20:25:36.426Z,67.60
2018-04-28T20:29:38.942Z,67.40
2018-04-28T20:33:42.236Z,68.20
2018-04-28T20:37:44.776Z,67.80
2018-04-28T20:41:47.325Z,67.50
2018-04-28T20:45:50.623Z,68.10
2018-04-28T20:49:53.901Z,70.80
2018-04-28T20:53:56.446Z,70.90
2018-04-28T20:57:58.975Z,67.90
2018-04-28T21:02:01.507Z,67.50
2018-04-28T21:06:04.036Z,67.80
2018-04-28T21:10:06.560Z,67.90
2018-04-28T21:14:09.888Z,67.80
2018-04-28T21:18:12.416Z,67.70
2018-04-28T21:22:15.028Z,67.90
2018-04-28T21:26:17.505Z,67.70
2018-04-28T21:30:20.788Z,67.70
2018-04-28T21:34:23.328Z,67.70
2018-04-28T21:38:28.720Z,68.10
2018-04-28T21:42:31.267Z,68.40
2018-04-28T21:46:33.824Z,67.70
2018-04-28T21:50:37.114Z,68.30
2018-04-28T21:54:40.470Z,68.90
2018-04-28T21:58:43.241Z,68.90
2018-04-28T22:02:45.808Z,68.60
2018-04-28T22:06:48.392Z,68.70
2018-04-28T22:10:51.702Z,68.50
2018-04-28T22:14:54.216Z,68.50
2018-04-28T22:18:56.743Z,68.50
2018-04-28T22:22:59.279Z,69.10
2018-04-28T22:27:01.803Z,69.60
2018-04-28T22:31:04.355Z,69.00
2018-04-28T22:35:06.876Z,68.40
2018-04-28T22:39:09.413Z,68.90
2018-04-28T22:43:11.948Z,69.40
2018-04-28T22:47:14.483Z,69.00
2018-04-28T22:51:17.010Z,68.80
2018-04-28T22:55:19.536Z,70.70
2018-04-28T22:59:22.059Z,69.50
2018-04-28T23:03:24.604Z,69.80
2018-04-28T23:07:27.135Z,69.20
2018-04-28T23:11:29.668Z,68.90
2018-04-28T23:15:32.934Z,70.20
2018-04-28T23:19:35.465Z,70.10
2018-04-28T23:23:37.990Z,69.50
2018-04-28T23:27:40.523Z,70.10
2018-04-28T23:31:43.060Z,69.50
2018-04-28T23:35:45.571Z,70.30
2018-04-28T23:39:48.113Z,70.00
2018-04-28T23:43:50.644Z,69.00
2018-04-28T23:47:53.174Z,69.30
2018-04-28T23:51:56.467Z,69.50
2018-04-28T23:55:59.028Z,69.40
